createdAt,value
2023-10-15T00:04:51.905Z,7.49
2023-10-15T00:09:54.750Z,7.45
2023-10-15T00:14:57.696Z,7.46
2023-10-15T00:20:00.704Z,7.44
2023-10-15T00:25:09.553Z,7.43
2023-10-15T00:30:15.743Z,7.37
2023-10-15T00:35:21.288Z,7.35
2023-10-15T00:40:27.291Z,7.37
2023-10-15T00:45:36.925Z,7.35
2023-10-15T00:50:42.723Z,7.30
2023-10-15T00:55:45.743Z,7.24
2023-10-15T01:00:52.704Z,7.25
2023-10-15T01:05:55.826Z,7.22
2023-10-15T01:11:10.307Z,7.22
2023-10-15T01:16:19.404Z,7.15
2023-10-15T01:21:23.048Z,7.19
2023-10-15T01:26:26.968Z,7.16
2023-10-15T01:31:30.725Z,7.18
2023-10-15T01:36:34.145Z,7.18
2023-10-15T01:41:41.178Z,7.18
2023-10-15T01:46:50.400Z,7.16
2023-10-15T01:51:56.653Z,7.17
2023-10-15T01:57:18.313Z,7.13
2023-10-15T02:02:42.454Z,7.09
2023-10-15T02:07:46.129Z,7.09
2023-10-15T02:13:01.709Z,7.10
2023-10-15T02:18:06.378Z,7.13
2023-10-15T02:23:09.390Z,7.14
2023-10-15T02:28:27.474Z,7.15
2023-10-15T02:33:31.595Z,7.14
2023-10-15T02:38:38.323Z,7.18
2023-10-15T02:43:42.694Z,7.16
2023-10-15T02:48:46.133Z,7.17
2023-10-15T02:53:54.587Z,7.15
2023-10-15T02:58:58.179Z,7.11
2023-10-15T03:04:08.720Z,7.09
2023-10-15T03:09:13.570Z,7.11
2023-10-15T03:14:16.559Z,7.08
2023-10-15T03:19:20.816Z,7.10
2023-10-15T03:24:24.331Z,7.12
2023-10-15T03:29:28.156Z,7.14
2023-10-15T03:34:37.499Z,7.18
2023-10-15T03:39:43.134Z,7.33
2023-10-15T03:44:49.089Z,7.44
2023-10-15T03:49:52.860Z,7.50
2023-10-15T03:54:57.387Z,7.51
2023-10-15T04:00:00.443Z,7.58
2023-10-15T04:05:10.100Z,7.61
2023-10-15T04:10:14.201Z,7.60
2023-10-15T04:15:20.153Z,7.66
2023-10-15T04:20:36.666Z,7.69
2023-10-15T04:25:40.413Z,7.78
2023-10-15T04:30:44.091Z,7.90
2023-10-15T04:35:50.156Z,8.03
2023-10-15T04:40:58.968Z,8.17
2023-10-15T04:46:04.214Z,8.35
2023-10-15T04:51:13.873Z,8.52
2023-10-15T04:56:17.551Z,8.73
2023-10-15T05:01:20.538Z,8.89
2023-10-15T05:06:24.159Z,9.09
2023-10-15T05:11:27.189Z,9.22
2023-10-15T05:16:31.212Z,9.48
2023-10-15T05:21:34.325Z,9.72
2023-10-15T05:26:37.292Z,9.98
2023-10-15T05:31:58.811Z,10.15
2023-10-15T05:37:03.481Z,10.37
2023-10-15T05:42:09.053Z,10.71
2023-10-15T05:47:12.282Z,11.03
2023-10-15T05:52:15.452Z,11.44
2023-10-15T05:57:18.593Z,11.66
2023-10-15T06:02:21.858Z,11.85
2023-10-15T06:07:25.130Z,12.18
2023-10-15T06:12:28.043Z,12.27
2023-10-15T06:17:31.478Z,12.40
2023-10-15T06:22:34.445Z,12.71
2023-10-15T06:27:37.933Z,12.98
2023-10-15T06:32:42.269Z,13.25
2023-10-15T06:38:01.785Z,13.60
2023-10-15T06:43:05.152Z,13.48
2023-10-15T06:48:12.002Z,13.57
2023-10-15T06:53:15.209Z,13.49
2023-10-15T06:58:18.412Z,13.58
2023-10-15T07:03:21.462Z,13.70
2023-10-15T07:08:24.367Z,13.61
2023-10-15T07:13:28.275Z,13.59
2023-10-15T07:18:34.466Z,13.58
2023-10-15T07:23:37.583Z,13.64
2023-10-15T07:28:40.530Z,13.75
2023-10-15T07:33:43.706Z,13.81
2023-10-15T07:38:46.547Z,13.92
2023-10-15T07:43:49.361Z,14.04
2023-10-15T07:48:54.161Z,14.01
2023-10-15T07:53:57.165Z,14.14
2023-10-15T07:59:00.123Z,14.14
2023-10-15T08:04:04.780Z,14.17
2023-10-15T08:09:08.010Z,14.14
2023-10-15T08:14:11.528Z,14.20
2023-10-15T08:19:14.299Z,14.34
2023-10-15T08:24:17.194Z,14.65
2023-10-15T08:29:21.459Z,14.90
2023-10-15T08:34:24.950Z,15.16
2023-10-15T08:39:28.626Z,15.59
2023-10-15T08:44:32.417Z,16.02
2023-10-15T08:49:36.970Z,16.51
2023-10-15T08:54:41.826Z,16.51
2023-10-15T08:59:45.452Z,16.47
2023-10-15T09:04:48.381Z,16.60
2023-10-15T09:09:52.910Z,16.80
2023-10-15T09:14:56.002Z,17.22
2023-10-15T09:20:01.965Z,17.12
2023-10-15T09:25:07.246Z,17.05
2023-10-15T09:30:23.357Z,17.11
2023-10-15T09:35:26.978Z,17.24
2023-10-15T09:40:33.006Z,17.20
2023-10-15T09:45:36.129Z,17.31
2023-10-15T09:50:40.255Z,17.23
2023-10-15T09:55:43.551Z,17.39
2023-10-15T10:00:54.596Z,17.35
2023-10-15T10:06:16.426Z,17.52
2023-10-15T10:11:31.162Z,17.64
2023-10-15T10:16:34.999Z,17.87
2023-10-15T10:21:38.136Z,17.83
2023-10-15T10:26:43.872Z,17.97
2023-10-15T10:31:48.657Z,17.90
2023-10-15T10:36:57.985Z,17.86
2023-10-15T10:42:01.789Z,18.00
2023-10-15T10:47:23.756Z,18.26
2023-10-15T10:52:38.464Z,17.93
2023-10-15T10:57:43.795Z,17.81
2023-10-15T11:02:47.752Z,17.68
2023-10-15T11:07:50.970Z,17.58
2023-10-15T11:12:54.064Z,17.61
2023-10-15T11:17:58.194Z,17.59
2023-10-15T11:23:02.990Z,17.75
2023-10-15T11:28:12.900Z,17.89
2023-10-15T11:33:19.072Z,17.94
2023-10-15T11:38:22.201Z,18.10
2023-10-15T11:43:25.257Z,18.36
2023-10-15T11:48:28.731Z,18.96
2023-10-15T11:53:32.169Z,19.24
2023-10-15T11:58:35.106Z,19.66
2023-10-15T12:03:38.662Z,19.68
2023-10-15T12:08:41.542Z,20.19
2023-10-15T12:13:45.719Z,20.19
2023-10-15T12:18:48.689Z,19.98
2023-10-15T12:23:51.806Z,20.16
2023-10-15T12:28:55.916Z,20.10
2023-10-15T12:34:02.389Z,20.38
2023-10-15T12:39:07.173Z,20.30
2023-10-15T12:44:12.357Z,20.64
2023-10-15T12:49:15.378Z,20.71
2023-10-15T12:54:20.609Z,20.18
2023-10-15T12:59:24.053Z,19.52
2023-10-15T13:04:27.127Z,19.17
2023-10-15T13:09:34.520Z,18.93
2023-10-15T13:14:37.885Z,18.76
2023-10-15T13:19:41.173Z,18.57
2023-10-15T13:24:44.830Z,18.35
2023-10-15T13:29:47.912Z,18.20
2023-10-15T13:34:50.964Z,17.99
2023-10-15T13:39:57.613Z,17.94
2023-10-15T13:45:00.942Z,17.84
2023-10-15T13:50:08.946Z,17.62
2023-10-15T13:55:14.214Z,17.40
2023-10-15T14:00:18.171Z,17.17
2023-10-15T14:05:22.068Z,17.01
2023-10-15T14:10:26.228Z,16.83
2023-10-15T14:15:29.063Z,16.59
2023-10-15T14:20:31.917Z,16.52
2023-10-15T14:25:35.616Z,16.35
2023-10-15T14:30:38.511Z,16.21
2023-10-15T14:35:41.823Z,16.11
2023-10-15T14:40:46.333Z,15.96
2023-10-15T14:45:50.195Z,15.84
2023-10-15T14:50:53.232Z,15.75
2023-10-15T14:55:56.403Z,15.64
2023-10-15T15:00:59.027Z,15.52
2023-10-15T15:06:06.160Z,15.43
2023-10-15T15:11:09.391Z,15.37
2023-10-15T15:16:12.358Z,15.28
2023-10-15T15:21:15.251Z,15.24
2023-10-15T15:26:18.302Z,15.18
2023-10-15T15:31:21.861Z,15.07
2023-10-15T15:36:24.760Z,14.99
2023-10-15T15:41:31.979Z,14.90
2023-10-15T15:46:37.095Z,14.81
2023-10-15T15:51:40.268Z,14.70
2023-10-15T15:56:43.725Z,14.62
2023-10-15T16:01:46.759Z,14.57
2023-10-15T16:06:49.946Z,14.51
2023-10-15T16:11:53.164Z,14.43
2023-10-15T16:16:55.855Z,14.39
2023-10-15T16:21:58.656Z,14.34
2023-10-15T16:27:01.949Z,14.31
2023-10-15T16:32:07.350Z,14.29
2023-10-15T16:37:10.925Z,14.27
2023-10-15T16:42:14.331Z,14.24
2023-10-15T16:47:18.019Z,14.21
2023-10-15T16:52:21.609Z,14.17
2023-10-15T16:57:28.014Z,14.13
2023-10-15T17:02:32.559Z,14.05
2023-10-15T17:07:36.020Z,14.01
2023-10-15T17:12:39.572Z,13.98
2023-10-15T17:17:43.732Z,13.91
2023-10-15T17:22:46.964Z,13.81
2023-10-15T17:27:49.858Z,13.75
2023-10-15T17:32:53.135Z,13.72
2023-10-15T17:37:56.326Z,13.62
2023-10-15T17:42:59.209Z,13.56
2023-10-15T17:48:02.636Z,13.50
2023-10-15T17:53:08.106Z,13.40
2023-10-15T17:58:11.461Z,13.34
2023-10-15T18:03:14.898Z,13.28
2023-10-15T18:08:18.161Z,13.17
2023-10-15T18:13:21.215Z,13.07
2023-10-15T18:18:24.490Z,12.98
2023-10-15T18:23:27.326Z,12.93
2023-10-15T18:28:30.095Z,12.85
2023-10-15T18:33:33.279Z,12.81
2023-10-15T18:38:37.208Z,12.79
2023-10-15T18:43:40.245Z,12.76
2023-10-15T18:48:43.394Z,12.73
2023-10-15T18:53:46.136Z,12.72
2023-10-15T18:58:50.035Z,12.71
2023-10-15T19:03:53.256Z,12.69
2023-10-15T19:08:56.365Z,12.68
2023-10-15T19:14:00.322Z,12.68
2023-10-15T19:19:03.127Z,12.62
2023-10-15T19:24:06.986Z,12.61
2023-10-15T19:29:10.964Z,12.65
2023-10-15T19:34:13.877Z,12.63
2023-10-15T19:39:17.344Z,12.61
2023-10-15T19:44:39.703Z,12.60
2023-10-15T19:49:42.528Z,12.59
2023-10-15T19:54:45.836Z,12.57
2023-10-15T19:59:49.164Z,12.53
2023-10-15T20:04:52.150Z,12.50
2023-10-15T20:09:55.135Z,12.47
2023-10-15T20:14:57.970Z,12.49
2023-10-15T20:20:08.159Z,12.41
2023-10-15T20:25:13.151Z,12.33
2023-10-15T20:30:17.347Z,12.23
2023-10-15T20:35:20.643Z,12.17
2023-10-15T20:40:27.302Z,12.12
2023-10-15T20:45:31.512Z,12.11
2023-10-15T20:50:36.182Z,12.11
2023-10-15T20:55:39.369Z,12.01
2023-10-15T21:00:42.553Z,11.94
2023-10-15T21:05:45.781Z,11.87
2023-10-15T21:10:48.976Z,11.83
2023-10-15T21:15:52.212Z,11.77
2023-10-15T21:20:56.196Z,11.66
2023-10-15T21:25:59.152Z,11.59
2023-10-15T21:31:02.134Z,11.54
2023-10-15T21:36:05.366Z,11.48
2023-10-15T21:41:08.269Z,11.43
2023-10-15T21:46:11.622Z,11.40
2023-10-15T21:51:14.857Z,11.36
2023-10-15T21:56:17.758Z,11.30
2023-10-15T22:01:23.287Z,11.27
2023-10-15T22:06:26.264Z,11.24
2023-10-15T22:11:29.340Z,11.24
2023-10-15T22:16:32.520Z,11.19
2023-10-15T22:21:37.215Z,11.14
2023-10-15T22:26:41.246Z,11.10
2023-10-15T22:31:44.506Z,11.07
2023-10-15T22:36:48.790Z,11.03
2023-10-15T22:41:55.959Z,10.99
2023-10-15T22:46:58.905Z,10.96
2023-10-15T22:52:01.828Z,10.93
2023-10-15T22:57:05.072Z,10.90
2023-10-15T23:02:09.508Z,10.88
2023-10-15T23:07:13.311Z,10.81
2023-10-15T23:12:16.301Z,10.80
2023-10-15T23:17:19.376Z,10.75
2023-10-15T23:22:22.454Z,10.72
2023-10-15T23:27:25.587Z,10.69
2023-10-15T23:32:28.484Z,10.68
2023-10-15T23:37:33.251Z,10.65
2023-10-15T23:42:37.052Z,10.65
2023-10-15T23:47:42.825Z,10.60
2023-10-15T23:52:46.220Z,10.57
2023-10-15T23:57:52.117Z,10.55
